Time;durP1;ratioP1;P1;durP2;ratioP2;P2;SDS_P1;SDS_P2;PMS_P1;PMS_P2;Temp;Humidity;BMP_temperature;BMP_pressure;BME280_temperature;BME280_humidity;BME280_pressure;Samples;Min_cycle;Max_cycle;Signal;HPM_P1;HPM_P2
2023/06/04 00:01:08;;;;;;;1.40;1.30;;;20.10;48.00;;;;;;5079669;28;20161;-81
2023/06/04 00:03:34;;;;;;;1.40;1.30;;;20.10;48.00;;;;;;5097731;28;20161;-81
2023/06/04 00:06:00;;;;;;;1.45;1.35;;;20.10;48.00;;;;;;5063006;28;20191;-80
2023/06/04 00:08:26;;;;;;;1.48;1.38;;;20.10;47.90;;;;;;5079634;28;20160;-82
2023/06/04 00:10:51;;;;;;;1.60;1.50;;;20.10;48.00;;;;;;5063107;28;20177;-83
2023/06/04 00:13:17;;;;;;;1.90;1.70;;;20.10;47.90;;;;;;5062649;28;20203;-81
2023/06/04 00:15:43;;;;;;;1.90;1.67;;;20.10;48.60;;;;;;5078580;28;20173;-81
2023/06/04 00:18:10;;;;;;;1.52;1.42;;;20.10;48.00;;;;;;5096381;28;20192;-83
2023/06/04 00:20:36;;;;;;;1.42;1.33;;;20.10;48.00;;;;;;5063062;28;20164;-83
2023/06/04 00:23:02;;;;;;;1.40;1.27;;;20.10;48.60;;;;;;5046143;28;20221;-83
2023/06/04 00:25:28;;;;;;;1.63;1.52;;;20.10;48.00;;;;;;5097194;28;20160;-82
2023/06/04 00:27:53;;;;;;;1.50;1.40;;;20.10;48.00;;;;;;5096157;28;20165;-81
2023/06/04 00:30:19;;;;;;;1.50;1.40;;;20.00;48.60;;;;;;5097387;28;20212;-80
2023/06/04 00:32:46;;;;;;;1.35;1.25;;;20.10;48.10;;;;;;5078973;28;20220;-82
2023/06/04 00:35:12;;;;;;;1.50;1.40;;;20.10;48.10;;;;;;5079216;28;20634;-81
2023/06/04 00:37:38;;;;;;;1.65;1.55;;;20.10;48.00;;;;;;5062114;28;20192;-82
2023/06/04 00:40:05;;;;;;;1.67;1.58;;;20.00;48.00;;;;;;5079141;28;20175;-80
2023/06/04 00:42:31;;;;;;;1.42;1.33;;;20.00;47.90;;;;;;5078580;28;20196;-82
2023/06/04 00:44:57;;;;;;;1.60;1.50;;;20.10;47.90;;;;;;5062085;28;20185;-81
2023/06/04 00:47:23;;;;;;;1.70;1.60;;;20.10;47.90;;;;;;5062113;28;20619;-82
2023/06/04 00:49:48;;;;;;;1.60;1.50;;;20.10;47.90;;;;;;5078546;28;20181;-83
2023/06/04 00:52:15;;;;;;;1.60;1.50;;;20.00;47.90;;;;;;5077646;28;20167;-83
2023/06/04 00:54:41;;;;;;;1.58;1.48;;;20.10;48.00;;;;;;5062243;28;20157;-81
2023/06/04 00:57:08;;;;;;;1.50;1.40;;;20.10;48.00;;;;;;5062031;28;20172;-81
2023/06/04 00:59:35;;;;;;;1.70;1.60;;;20.10;47.90;;;;;;5078962;28;20198;-83
2023/06/04 01:02:11;;;;;;;1.58;1.48;;;20.10;47.90;;;;;;5078667;28;20153;-81
2023/06/04 01:04:44;;;;;;;1.50;1.40;;;20.10;47.90;;;;;;5078704;28;20181;-83
2023/06/04 01:07:12;;;;;;;1.50;1.40;;;20.10;47.90;;;;;;5063009;28;20164;-81
2023/06/04 01:09:38;;;;;;;1.73;1.63;;;20.10;47.80;;;;;;5078968;28;20149;-82
2023/06/04 01:12:04;;;;;;;1.55;1.45;;;20.10;47.80;;;;;;5078673;28;20197;-82
2023/06/04 01:14:33;;;;;;;1.73;1.63;;;20.10;47.80;;;;;;5078218;28;20149;-81
2023/06/04 01:17:08;;;;;;;1.75;1.65;;;20.10;47.80;;;;;;5061896;28;20283;-82
2023/06/04 01:20:02;;;;;;;1.65;1.55;;;20.00;47.80;;;;;;5078621;28;20196;-80
2023/06/04 01:22:54;;;;;;;1.10;1.10;;;20.00;47.80;;;;;;5064215;28;20251;-82
2023/06/04 01:25:32;;;;;;;1.40;1.30;;;20.00;47.70;;;;;;5081534;28;20145;-82
2023/06/04 01:27:58;;;;;;;1.40;1.30;;;20.00;47.70;;;;;;5078120;28;20153;-82
2023/06/04 01:30:31;;;;;;;1.20;1.13;;;20.10;47.80;;;;;;5061426;28;20162;-82
2023/06/04 01:32:57;;;;;;;1.52;1.42;;;20.10;47.70;;;;;;5095965;28;20295;-82
2023/06/04 01:35:25;;;;;;;1.50;1.40;;;20.10;47.80;;;;;;5094709;28;20208;-82
2023/06/04 01:37:51;;;;;;;1.23;1.13;;;20.00;47.70;;;;;;5095741;28;20701;-81
2023/06/04 01:40:17;;;;;;;1.52;1.42;;;20.00;47.70;;;;;;5077550;28;20160;-81
2023/06/04 01:42:42;;;;;;;1.30;1.15;;;20.10;47.70;;;;;;5095961;28;20157;-81
2023/06/04 01:45:09;;;;;;;1.50;1.40;;;20.00;47.70;;;;;;5095870;28;20160;-83
2023/06/04 01:47:35;;;;;;;1.42;1.33;;;20.10;47.70;;;;;;5077602;28;20554;-82
2023/06/04 01:50:01;;;;;;;1.38;1.20;;;20.10;47.70;;;;;;5077334;28;20172;-82
2023/06/04 01:52:27;;;;;;;1.20;1.10;;;20.00;47.70;;;;;;5044858;28;20167;-83
2023/06/04 01:54:53;;;;;;;1.25;1.15;;;20.00;47.80;;;;;;5078087;28;20161;-83
2023/06/04 01:57:21;;;;;;;1.50;1.40;;;20.10;47.80;;;;;;5060566;28;20164;-83
2023/06/04 01:59:46;;;;;;;1.40;1.30;;;20.10;47.80;;;;;;5061732;28;20153;-82
2023/06/04 02:02:13;;;;;;;1.63;1.23;;;20.00;47.70;;;;;;5077684;28;20157;-81
2023/06/04 02:04:41;;;;;;;1.38;1.27;;;20.00;47.70;;;;;;5077348;28;20611;-82
2023/06/04 02:07:09;;;;;;;1.63;1.23;;;20.00;47.80;;;;;;5095448;28;20148;-81
2023/06/04 02:09:35;;;;;;;1.27;1.17;;;20.00;47.70;;;;;;5076911;28;20165;-83
2023/06/04 02:12:01;;;;;;;1.30;1.20;;;20.00;47.70;;;;;;5060635;28;20161;-82
2023/06/04 02:14:27;;;;;;;1.30;1.20;;;20.00;47.70;;;;;;5077031;28;20228;-81
2023/06/04 02:16:57;;;;;;;1.50;1.40;;;20.10;47.70;;;;;;5077254;28;20188;-81
2023/06/04 02:19:25;;;;;;;1.48;1.38;;;20.10;47.80;;;;;;5077730;28;20188;-81
2023/06/04 02:21:52;;;;;;;1.40;1.30;;;20.10;47.70;;;;;;5061007;28;20179;-81
2023/06/04 02:24:17;;;;;;;1.40;1.30;;;20.00;47.70;;;;;;5060991;28;20528;-83
2023/06/04 02:26:43;;;;;;;1.80;1.60;;;20.10;47.80;;;;;;5095254;28;20623;-81
2023/06/04 02:29:09;;;;;;;1.60;1.50;;;20.10;47.80;;;;;;5094841;28;20176;-81
2023/06/04 02:31:35;;;;;;;1.50;1.40;;;20.10;47.80;;;;;;5094060;28;20160;-81
2023/06/04 02:34:00;;;;;;;1.33;1.23;;;20.10;47.80;;;;;;5091163;28;20216;-80
2023/06/04 02:36:26;;;;;;;1.48;1.38;;;20.00;47.80;;;;;;5096992;28;20531;-82
2023/06/04 02:38:52;;;;;;;1.30;1.20;;;20.00;47.80;;;;;;5096784;28;20196;-82
2023/06/04 02:41:18;;;;;;;1.50;1.30;;;20.10;47.80;;;;;;5120198;28;20236;-80
2023/06/04 02:43:44;;;;;;;1.50;1.40;;;20.00;47.80;;;;;;5105297;28;20179;-81
2023/06/04 02:46:10;;;;;;;1.35;1.25;;;20.00;47.80;;;;;;5106016;28;20147;-79
2023/06/04 02:48:35;;;;;;;1.30;1.20;;;20.00;47.80;;;;;;5105729;28;20156;-79
2023/06/04 02:51:01;;;;;;;1.60;1.30;;;20.10;47.80;;;;;;5088791;28;20190;-80
2023/06/04 02:53:27;;;;;;;1.30;1.20;;;20.00;47.80;;;;;;5088645;28;20563;-81
2023/06/04 02:55:52;;;;;;;1.30;1.20;;;20.00;47.80;;;;;;5105964;28;20167;-83
2023/06/04 02:58:24;;;;;;;1.33;1.23;;;20.00;47.80;;;;;;5104650;28;20552;-81
2023/06/04 03:00:52;;;;;;;1.42;1.33;;;20.10;48.50;;;;;;5088162;28;20191;-79
2023/06/04 03:03:19;;;;;;;1.30;1.20;;;20.00;47.80;;;;;;5104595;28;20230;-80
2023/06/04 03:05:44;;;;;;;1.30;1.20;;;20.00;47.80;;;;;;5122025;28;20156;-83
2023/06/04 03:08:11;;;;;;;1.08;1.00;;;20.00;47.80;;;;;;5104362;28;20615;-79
2023/06/04 03:10:37;;;;;;;1.50;1.40;;;20.00;48.40;;;;;;5123149;28;20156;-81
2023/06/04 03:13:04;;;;;;;1.30;1.20;;;20.00;47.80;;;;;;5123160;28;20175;-80
2023/06/04 03:15:31;;;;;;;1.60;1.50;;;20.00;47.80;;;;;;5105476;28;20148;-81
2023/06/04 03:17:57;;;;;;;1.40;1.30;;;20.00;47.70;;;;;;5071815;28;20255;-79
2023/06/04 03:20:24;;;;;;;1.33;1.23;;;20.00;47.80;;;;;;5071560;28;20218;-80
2023/06/04 03:22:51;;;;;;;1.42;1.10;;;20.00;47.70;;;;;;5088460;28;20607;-80
2023/06/04 03:25:17;;;;;;;1.27;1.17;;;20.00;47.80;;;;;;5105596;28;20150;-83
2023/06/04 03:27:44;;;;;;;1.30;1.20;;;20.00;47.70;;;;;;5105191;28;20191;-79
2023/06/04 03:30:10;;;;;;;1.50;1.40;;;20.00;47.80;;;;;;5104966;28;20152;-82
2023/06/04 03:32:35;;;;;;;1.92;1.50;;;20.00;47.80;;;;;;5121314;28;20264;-80
2023/06/04 03:35:02;;;;;;;1.42;1.33;;;20.00;47.80;;;;;;5084025;28;20218;-80
2023/06/04 03:37:32;;;;;;;1.20;1.10;;;20.00;47.80;;;;;;5085335;28;20152;-80
2023/06/04 03:39:58;;;;;;;1.40;1.30;;;20.00;47.80;;;;;;5101719;28;20558;-79
2023/06/04 03:42:23;;;;;;;1.45;1.35;;;20.00;47.80;;;;;;5101843;28;20157;-83
2023/06/04 03:44:49;;;;;;;1.30;1.20;;;20.00;47.80;;;;;;5117092;28;20157;-84
2023/06/04 03:47:15;;;;;;;1.48;1.38;;;20.00;47.80;;;;;;5083735;28;20638;-81
2023/06/04 03:49:40;;;;;;;1.45;1.35;;;20.00;47.80;;;;;;5101461;28;20165;-80
2023/06/04 03:52:07;;;;;;;1.40;1.30;;;20.00;47.80;;;;;;5100190;28;20520;-82
2023/06/04 03:54:33;;;;;;;1.50;1.40;;;20.00;47.80;;;;;;5083105;28;20169;-82
2023/06/04 03:56:58;;;;;;;1.30;1.20;;;20.00;47.80;;;;;;5082754;28;20571;-80
2023/06/04 03:59:25;;;;;;;1.80;1.20;;;20.00;47.80;;;;;;5083260;28;20586;-80
2023/06/04 04:01:50;;;;;;;1.60;1.38;;;20.00;47.70;;;;;;5083133;28;20199;-80
2023/06/04 04:04:16;;;;;;;1.30;1.20;;;20.10;47.70;;;;;;5099842;28;20153;-81
2023/06/04 04:06:45;;;;;;;1.30;1.20;;;20.10;47.60;;;;;;5082723;28;20508;-82
2023/06/04 04:09:14;;;;;;;1.30;1.20;;;20.10;47.40;;;;;;5065966;28;20176;-80
2023/06/04 04:11:42;;;;;;;1.40;1.30;;;20.10;47.40;;;;;;5065676;28;20531;-81
2023/06/04 04:14:08;;;;;;;1.35;1.25;;;20.20;47.40;;;;;;5066192;28;20156;-81
2023/06/04 04:16:36;;;;;;;1.23;1.13;;;20.20;47.20;;;;;;5083778;28;20173;-79
2023/06/04 04:19:07;;;;;;;1.38;1.27;;;20.20;47.10;;;;;;5083217;28;20262;-82
2023/06/04 04:21:36;;;;;;;1.50;1.40;;;20.20;47.10;;;;;;5100661;28;20267;-80
2023/06/04 04:24:02;;;;;;;1.42;1.33;;;20.20;47.00;;;;;;5101670;28;20156;-82
2023/06/04 04:26:29;;;;;;;1.33;1.20;;;20.20;47.10;;;;;;5099815;28;20209;-80
2023/06/04 04:28:57;;;;;;;1.50;1.40;;;20.30;47.10;;;;;;5087591;28;20318;-80
2023/06/04 04:31:24;;;;;;;1.40;1.30;;;20.30;47.00;;;;;;5086771;28;20173;-80
2023/06/04 04:33:52;;;;;;;1.48;1.38;;;20.30;46.90;;;;;;5116197;28;20800;-81
2023/06/04 04:36:20;;;;;;;1.40;1.30;;;20.30;46.90;;;;;;5107512;28;20159;-80
2023/06/04 04:38:53;;;;;;;1.30;1.20;;;20.30;46.90;;;;;;5107024;28;20188;-82
2023/06/04 04:41:22;;;;;;;1.30;1.20;;;20.30;46.90;;;;;;5108122;28;20595;-80
2023/06/04 04:43:48;;;;;;;1.55;1.45;;;20.30;46.80;;;;;;5090830;28;20179;-80
2023/06/04 04:46:14;;;;;;;1.40;1.30;;;20.40;46.80;;;;;;5107163;28;20157;-81
2023/06/04 04:48:42;;;;;;;1.10;1.05;;;20.40;46.80;;;;;;5090148;28;20175;-82
2023/06/04 04:51:09;;;;;;;1.33;1.23;;;20.40;46.70;;;;;;5090224;28;20160;-81
2023/06/04 04:53:35;;;;;;;1.45;1.35;;;20.40;46.70;;;;;;5125559;28;20695;-80
2023/06/04 04:56:00;;;;;;;1.65;1.55;;;20.40;46.70;;;;;;5107134;28;20160;-81
2023/06/04 04:58:28;;;;;;;1.50;1.40;;;20.40;46.80;;;;;;5107016;28;20195;-82
2023/06/04 05:00:54;;;;;;;1.40;1.30;;;20.40;46.70;;;;;;5106557;28;20152;-81
2023/06/04 05:03:19;;;;;;;1.27;1.17;;;20.50;46.60;;;;;;5124196;28;20160;-81
2023/06/04 05:05:45;;;;;;;1.40;1.30;;;20.40;46.60;;;;;;5125091;28;20145;-82
2023/06/04 05:08:14;;;;;;;1.95;1.35;;;20.50;46.70;;;;;;5124751;28;20148;-80
2023/06/04 05:10:40;;;;;;;1.30;1.20;;;20.40;46.60;;;;;;5125491;28;20614;-81
2023/06/04 05:13:06;;;;;;;1.75;1.30;;;20.50;46.60;;;;;;5090398;28;20606;-81
2023/06/04 05:15:35;;;;;;;1.40;1.30;;;20.40;46.50;;;;;;5106079;28;20174;-82
2023/06/04 05:18:00;;;;;;;1.30;1.20;;;20.50;46.50;;;;;;5124280;28;20184;-82
2023/06/04 05:20:27;;;;;;;1.35;1.25;;;20.50;46.50;;;;;;5106402;28;20217;-82
2023/06/04 05:22:55;;;;;;;1.20;1.10;;;20.50;46.30;;;;;;5105761;28;20175;-81
2023/06/04 05:25:21;;;;;;;1.48;1.38;;;20.60;46.30;;;;;;5125125;28;20144;-83
2023/06/04 05:27:49;;;;;;;1.40;1.30;;;20.60;46.30;;;;;;5105775;28;20153;-81
2023/06/04 05:30:15;;;;;;;1.30;1.20;;;20.50;46.30;;;;;;5089605;28;20149;-81
2023/06/04 05:32:40;;;;;;;1.27;1.17;;;20.50;46.30;;;;;;5072262;28;20160;-83
2023/06/04 05:35:10;;;;;;;1.38;1.27;;;20.50;46.30;;;;;;5088861;28;20164;-80
2023/06/04 05:37:37;;;;;;;1.30;1.20;;;20.60;46.20;;;;;;5088424;28;20603;-80
2023/06/04 05:40:05;;;;;;;2.10;1.33;;;20.70;46.20;;;;;;5105851;28;20231;-80
2023/06/04 05:42:31;;;;;;;1.30;1.20;;;20.70;46.00;;;;;;5106481;28;20148;-81
2023/06/04 05:44:56;;;;;;;1.25;1.15;;;20.70;46.00;;;;;;5105913;28;20163;-81
2023/06/04 05:47:22;;;;;;;1.50;1.40;;;20.60;45.90;;;;;;5105329;28;20160;-80
2023/06/04 05:49:49;;;;;;;1.25;1.15;;;20.70;45.90;;;;;;5105921;28;20158;-82
2023/06/04 05:52:14;;;;;;;1.45;1.35;;;20.70;45.90;;;;;;5088956;28;20588;-80
2023/06/04 05:54:40;;;;;;;1.48;1.38;;;20.70;45.90;;;;;;5106642;28;20611;-80
2023/06/04 05:57:07;;;;;;;1.35;1.25;;;20.60;45.90;;;;;;5124578;28;20336;-81
2023/06/04 05:59:32;;;;;;;1.33;1.23;;;20.70;46.00;;;;;;5087945;28;20176;-81
2023/06/04 06:01:59;;;;;;;1.23;1.13;;;20.70;45.80;;;;;;5072161;28;20198;-80
2023/06/04 06:04:26;;;;;;;1.30;1.20;;;20.70;45.90;;;;;;5088373;28;20156;-81
2023/06/04 06:06:51;;;;;;;1.30;1.20;;;20.70;45.80;;;;;;5088714;28;20164;-80
2023/06/04 06:09:18;;;;;;;1.20;1.10;;;20.70;45.80;;;;;;5105179;28;20571;-80
2023/06/04 06:11:44;;;;;;;1.20;1.10;;;20.70;46.00;;;;;;5088847;28;20175;-82
2023/06/04 06:14:10;;;;;;;1.40;1.30;;;20.60;45.90;;;;;;5071058;28;20249;-81
2023/06/04 06:16:36;;;;;;;1.70;1.60;;;20.70;45.90;;;;;;5105619;28;20161;-82
2023/06/04 06:19:02;;;;;;;1.33;1.23;;;20.60;45.90;;;;;;5123310;28;20580;-82
2023/06/04 06:21:27;;;;;;;1.30;1.20;;;20.70;45.80;;;;;;5087999;28;20182;-82
2023/06/04 06:23:54;;;;;;;1.20;1.10;;;20.70;45.90;;;;;;5104653;28;20159;-83
2023/06/04 06:26:21;;;;;;;1.42;1.33;;;20.80;45.80;;;;;;5087754;28;20194;-82
2023/06/04 06:28:49;;;;;;;1.20;1.10;;;20.80;45.70;;;;;;5104201;28;20144;-81
2023/06/04 06:31:16;;;;;;;1.50;1.40;;;20.80;45.70;;;;;;5104417;28;20172;-82
2023/06/04 06:33:42;;;;;;;1.20;1.10;;;20.80;45.70;;;;;;5075810;28;20224;-79
2023/06/04 06:36:09;;;;;;;1.40;1.30;;;20.80;45.80;;;;;;5102203;28;20171;-80
2023/06/04 06:38:35;;;;;;;1.20;1.10;;;20.80;45.80;;;;;;5083373;28;20193;-82
2023/06/04 06:41:03;;;;;;;1.35;1.25;;;20.70;45.60;;;;;;5067003;28;20165;-79
2023/06/04 06:43:28;;;;;;;1.40;1.30;;;20.90;45.60;;;;;;5101944;28;20179;-81
2023/06/04 06:45:54;;;;;;;1.42;1.33;;;20.80;45.70;;;;;;5101820;28;20545;-79
2023/06/04 06:48:20;;;;;;;1.25;1.15;;;20.80;45.70;;;;;;5101708;28;20156;-81
2023/06/04 06:50:47;;;;;;;1.42;1.33;;;20.80;45.70;;;;;;5082421;28;20157;-81
2023/06/04 06:53:12;;;;;;;1.20;1.10;;;20.80;45.60;;;;;;5083397;28;20229;-79
2023/06/04 06:55:39;;;;;;;1.30;1.20;;;20.80;45.70;;;;;;5102687;28;20156;-80
2023/06/04 06:58:06;;;;;;;1.25;1.15;;;20.80;45.60;;;;;;5083803;28;20283;-79
2023/06/04 07:00:31;;;;;;;1.23;1.13;;;20.80;45.60;;;;;;5083223;28;20164;-80
2023/06/04 07:02:58;;;;;;;1.35;1.25;;;20.80;45.50;;;;;;5067097;28;20168;-79
2023/06/04 07:05:26;;;;;;;1.73;1.20;;;20.90;45.60;;;;;;5102371;28;20152;-81
2023/06/04 07:07:52;;;;;;;1.33;1.23;;;20.90;45.50;;;;;;5066796;28;20149;-80
2023/06/04 07:10:20;;;;;;;1.30;1.20;;;20.90;45.50;;;;;;5066725;28;20153;-79
2023/06/04 07:12:48;;;;;;;1.40;1.30;;;20.90;45.40;;;;;;5050318;28;20179;-80
2023/06/04 07:15:15;;;;;;;1.30;1.20;;;21.00;45.30;;;;;;5050255;28;20165;-80
2023/06/04 07:17:41;;;;;;;1.50;1.15;;;21.00;45.40;;;;;;5065747;28;20179;-82
2023/06/04 07:20:09;;;;;;;1.30;1.20;;;21.00;45.20;;;;;;5099768;28;20149;-80
2023/06/04 07:22:34;;;;;;;1.48;1.38;;;20.90;45.30;;;;;;5066970;28;20191;-79
2023/06/04 07:25:00;;;;;;;1.23;1.13;;;20.80;45.60;;;;;;5083189;28;20564;-80
2023/06/04 07:27:28;;;;;;;1.20;1.10;;;20.90;45.40;;;;;;5066515;28;20248;-80
2023/06/04 07:29:55;;;;;;;1.33;1.20;;;20.90;45.40;;;;;;5101016;28;20160;-80
2023/06/04 07:32:20;;;;;;;1.35;1.25;;;21.00;45.30;;;;;;5101280;28;20173;-83
2023/06/04 07:34:47;;;;;;;1.17;1.08;;;21.00;45.30;;;;;;5082169;28;20216;-80
2023/06/04 07:37:13;;;;;;;1.30;1.20;;;21.00;45.40;;;;;;5100529;28;20207;-80
2023/06/04 07:39:40;;;;;;;1.30;1.20;;;20.90;45.30;;;;;;5101545;28;20258;-80
2023/06/04 07:42:07;;;;;;;1.20;1.10;;;21.00;45.30;;;;;;5084055;28;20148;-81
2023/06/04 07:44:33;;;;;;;1.10;1.00;;;20.90;45.30;;;;;;5085018;28;20615;-80
2023/06/04 07:47:00;;;;;;;1.30;1.20;;;20.80;45.50;;;;;;5085430;28;20164;-79
2023/06/04 07:49:27;;;;;;;2.22;1.02;;;20.70;45.80;;;;;;5085113;28;20217;-81
2023/06/04 07:51:55;;;;;;;1.15;1.00;;;20.50;45.80;;;;;;5100760;28;20161;-81
2023/06/04 07:54:20;;;;;;;1.00;1.00;;;20.40;46.00;;;;;;5066420;28;20215;-80
2023/06/04 07:56:46;;;;;;;1.73;1.00;;;20.30;46.00;;;;;;5083562;28;20631;-79
2023/06/04 07:59:12;;;;;;;0.88;0.80;;;20.20;45.90;;;;;;5065820;28;20583;-80
2023/06/04 08:01:40;;;;;;;0.88;0.88;;;20.10;45.80;;;;;;5086169;28;20153;-80
2023/06/04 08:04:06;;;;;;;0.90;0.90;;;20.10;45.90;;;;;;5071291;28;20161;-79
2023/06/04 08:06:33;;;;;;;0.73;0.73;;;20.10;45.90;;;;;;5088297;28;20167;-80
2023/06/04 08:08:58;;;;;;;0.98;0.80;;;20.00;46.00;;;;;;5086731;28;20198;-83
2023/06/04 08:11:24;;;;;;;0.80;0.80;;;19.90;45.90;;;;;;5072380;28;20562;-78
2023/06/04 08:13:50;;;;;;;0.80;0.80;;;20.00;46.10;;;;;;5052359;28;20176;-81
2023/06/04 08:16:16;;;;;;;0.80;0.80;;;19.90;46.00;;;;;;5051652;28;20524;-80
2023/06/04 08:18:41;;;;;;;0.98;0.90;;;19.80;45.90;;;;;;5068600;28;20177;-81
2023/06/04 08:21:10;;;;;;;0.80;0.80;;;19.90;46.10;;;;;;5050940;28;20619;-80
2023/06/04 08:23:38;;;;;;;1.20;0.75;;;19.90;45.90;;;;;;5068724;28;20145;-80
2023/06/04 08:26:03;;;;;;;1.13;1.02;;;19.80;45.80;;;;;;5085024;28;20163;-79
2023/06/04 08:28:29;;;;;;;1.02;0.90;;;19.80;45.90;;;;;;5085277;28;20251;-80
2023/06/04 08:30:55;;;;;;;0.70;0.70;;;19.80;45.80;;;;;;5067666;28;20167;-81
2023/06/04 08:33:20;;;;;;;1.00;0.90;;;19.80;45.80;;;;;;5068093;28;20223;-81
2023/06/04 08:35:46;;;;;;;0.80;0.80;;;19.80;45.80;;;;;;5085805;28;20209;-81
2023/06/04 08:38:13;;;;;;;0.80;0.80;;;19.80;45.80;;;;;;5085858;28;20195;-83
2023/06/04 08:40:38;;;;;;;0.70;0.70;;;19.70;45.80;;;;;;5086142;28;20149;-81
2023/06/04 08:43:04;;;;;;;0.65;0.65;;;19.80;45.70;;;;;;5104077;28;20705;-79
2023/06/04 08:45:30;;;;;;;0.80;0.80;;;19.80;45.70;;;;;;5104082;28;20511;-83
2023/06/04 08:47:55;;;;;;;1.50;0.90;;;19.70;45.40;;;;;;5104176;28;20682;-82
2023/06/04 08:50:22;;;;;;;0.70;0.70;;;19.80;45.50;;;;;;5085930;28;20200;-81
2023/06/04 08:52:53;;;;;;;0.68;0.52;;;19.80;45.40;;;;;;5053290;28;20169;-80
2023/06/04 08:55:19;;;;;;;0.65;0.65;;;19.80;45.50;;;;;;5086830;28;20164;-80
2023/06/04 08:57:44;;;;;;;0.60;0.60;;;19.70;45.40;;;;;;5068831;28;20172;-79
2023/06/04 09:00:12;;;;;;;0.70;0.70;;;19.70;45.40;;;;;;5084998;28;20312;-81
2023/06/04 09:02:40;;;;;;;0.73;0.73;;;19.70;45.30;;;;;;5067888;28;20244;-79
2023/06/04 09:05:08;;;;;;;1.70;0.77;;;19.70;45.40;;;;;;5084066;28;20169;-82
2023/06/04 09:07:36;;;;;;;0.70;0.70;;;19.70;45.40;;;;;;5084976;28;20141;-79
2023/06/04 09:10:05;;;;;;;0.63;0.63;;;19.70;45.50;;;;;;5084797;28;20311;-81
2023/06/04 09:12:30;;;;;;;1.02;0.80;;;19.60;45.70;;;;;;5052167;28;20165;-80
2023/06/04 09:14:56;;;;;;;0.60;0.60;;;19.70;45.80;;;;;;5104288;28;20160;-79
2023/06/04 09:17:23;;;;;;;3.22;0.70;;;19.60;45.70;;;;;;5052662;28;20169;-81
2023/06/04 09:19:50;;;;;;;2.25;0.90;;;19.60;45.80;;;;;;5068677;28;20324;-79
2023/06/04 09:22:16;;;;;;;2.78;0.90;;;19.50;45.80;;;;;;5101488;28;20155;-80
2023/06/04 09:24:52;;;;;;;2.10;0.80;;;19.60;45.70;;;;;;5067897;28;20183;-81
2023/06/04 09:27:26;;;;;;;4.75;0.80;;;19.60;45.80;;;;;;5085162;28;20156;-80
2023/06/04 09:29:55;;;;;;;0.90;0.68;;;19.60;45.80;;;;;;5084738;28;20236;-79
2023/06/04 09:32:24;;;;;;;0.90;0.80;;;19.60;45.90;;;;;;5082496;28;20209;-81
2023/06/04 09:34:53;;;;;;;2.88;0.73;;;19.60;45.80;;;;;;5098472;28;20221;-80
2023/06/04 09:37:18;;;;;;;2.70;0.75;;;19.60;45.80;;;;;;5082974;28;20179;-79
2023/06/04 09:39:53;;;;;;;1.30;0.82;;;19.50;45.80;;;;;;5082386;28;20306;-82
2023/06/04 09:42:22;;;;;;;1.15;0.70;;;19.60;46.00;;;;;;5099341;28;20153;-81
2023/06/04 09:44:48;;;;;;;1.98;0.80;;;19.50;45.40;;;;;;5101102;28;20198;-79
2023/06/04 09:47:13;;;;;;;0.93;0.70;;;19.60;45.70;;;;;;5101455;28;20153;-83
2023/06/04 09:49:47;;;;;;;1.23;0.50;;;19.60;45.70;;;;;;5101540;28;20623;-83
2023/06/04 09:52:25;;;;;;;1.08;0.60;;;19.50;45.60;;;;;;5085121;28;20177;-80
2023/06/04 09:54:51;;;;;;;0.80;0.80;;;19.50;45.30;;;;;;5085912;28;20264;-81
2023/06/04 09:57:19;;;;;;;0.50;0.50;;;19.60;45.50;;;;;;5103141;28;20631;-80
2023/06/04 09:59:46;;;;;;;2.13;0.50;;;19.50;45.50;;;;;;5085802;28;20659;-80
2023/06/04 10:02:12;;;;;;;0.80;0.60;;;19.50;45.40;;;;;;5086319;28;20171;-80
2023/06/04 10:04:42;;;;;;;2.65;0.80;;;19.60;45.40;;;;;;5103664;28;20608;-78
2023/06/04 10:07:09;;;;;;;0.63;0.52;;;19.60;45.30;;;;;;5102911;28;20145;-78
2023/06/04 10:09:35;;;;;;;1.25;0.60;;;19.60;45.20;;;;;;5086998;28;20228;-81
2023/06/04 10:12:02;;;;;;;0.55;0.45;;;19.60;45.20;;;;;;5086606;28;20190;-79
2023/06/04 10:14:35;;;;;;;2.22;0.60;;;19.60;45.10;;;;;;5103256;28;20269;-79
2023/06/04 10:17:00;;;;;;;0.50;0.50;;;19.60;45.10;;;;;;5105107;28;20163;-79
2023/06/04 10:19:26;;;;;;;2.17;0.60;;;19.60;45.10;;;;;;5105418;28;20706;-79
2023/06/04 10:21:53;;;;;;;0.73;0.73;;;19.50;45.00;;;;;;5104286;28;20145;-79
2023/06/04 10:24:20;;;;;;;0.70;0.60;;;19.60;45.10;;;;;;5086709;28;20206;-79
2023/06/04 10:26:46;;;;;;;2.83;0.90;;;19.60;45.10;;;;;;5087382;28;20234;-79
2023/06/04 10:29:13;;;;;;;0.57;0.50;;;19.60;44.90;;;;;;5087476;28;20165;-79
2023/06/04 10:31:41;;;;;;;1.92;0.63;;;19.60;45.00;;;;;;5087147;28;20156;-79
2023/06/04 10:34:07;;;;;;;4.00;0.68;;;19.60;44.90;;;;;;5102695;28;20281;-80
2023/06/04 10:36:42;;;;;;;1.58;0.50;;;19.60;44.90;;;;;;5070996;28;20172;-79
2023/06/04 10:39:08;;;;;;;0.45;0.45;;;19.60;44.70;;;;;;5088628;28;20187;-78
2023/06/04 10:41:34;;;;;;;1.17;0.50;;;19.60;44.80;;;;;;5104422;28;20145;-79
2023/06/04 10:44:03;;;;;;;0.80;0.50;;;19.60;44.80;;;;;;5086717;28;20145;-79
2023/06/04 10:46:40;;;;;;;1.08;0.40;;;19.60;44.80;;;;;;5070748;28;20161;-80
2023/06/04 10:49:07;;;;;;;0.68;0.50;;;19.60;44.80;;;;;;5070309;28;20692;-79
2023/06/04 10:51:38;;;;;;;0.60;0.60;;;19.60;44.70;;;;;;5071313;28;20298;-79
2023/06/04 10:54:04;;;;;;;0.60;0.40;;;19.60;44.80;;;;;;5054521;28;20172;-79
2023/06/04 10:56:32;;;;;;;2.33;0.65;;;19.60;44.70;;;;;;5069837;28;20161;-79
2023/06/04 10:58:58;;;;;;;1.63;0.45;;;19.50;44.70;;;;;;5070361;28;20199;-80
2023/06/04 11:01:26;;;;;;;1.48;0.52;;;19.60;44.70;;;;;;5069934;28;20184;-78
2023/06/04 11:03:52;;;;;;;0.50;0.50;;;19.70;44.70;;;;;;5052054;28;20161;-80
2023/06/04 11:06:18;;;;;;;1.40;0.40;;;19.60;45.30;;;;;;5051703;28;20172;-82
2023/06/04 11:08:44;;;;;;;0.43;0.40;;;19.60;44.60;;;;;;5044815;28;20165;-81
2023/06/04 11:11:14;;;;;;;1.20;0.52;;;19.60;44.60;;;;;;5095809;28;20153;-81
2023/06/04 11:13:41;;;;;;;1.90;0.60;;;19.60;44.50;;;;;;5060043;28;20153;-82
2023/06/04 11:16:21;;;;;;;0.60;0.50;;;19.60;44.60;;;;;;5059869;28;20634;-82
2023/06/04 11:18:57;;;;;;;0.60;0.50;;;19.60;44.50;;;;;;5094967;28;20714;-82
2023/06/04 11:21:22;;;;;;;0.52;0.52;;;19.60;44.60;;;;;;5094388;28;20472;-82
2023/06/04 11:23:48;;;;;;;0.40;0.40;;;19.50;44.40;;;;;;5077685;28;20564;-81
2023/06/04 11:26:14;;;;;;;0.52;0.52;;;19.60;44.50;;;;;;5094369;28;20153;-81
2023/06/04 11:28:44;;;;;;;1.55;0.50;;;19.50;44.40;;;;;;5076043;28;20157;-82
2023/06/04 11:31:10;;;;;;;0.40;0.40;;;19.60;44.50;;;;;;5077007;28;20603;-82
2023/06/04 11:33:44;;;;;;;0.68;0.50;;;19.60;44.50;;;;;;5076293;28;20215;-81
2023/06/04 11:36:10;;;;;;;0.55;0.52;;;19.60;44.50;;;;;;5077514;28;20236;-81
2023/06/04 11:38:37;;;;;;;0.98;0.40;;;19.60;44.40;;;;;;5080666;28;20185;-82
2023/06/04 11:41:05;;;;;;;0.57;0.52;;;19.50;44.40;;;;;;5080871;28;20171;-81
2023/06/04 11:43:32;;;;;;;0.63;0.55;;;19.60;44.30;;;;;;5063943;28;20172;-81
2023/06/04 11:45:58;;;;;;;0.77;0.75;;;19.60;44.30;;;;;;5080036;28;20153;-81
2023/06/04 11:48:23;;;;;;;0.50;0.50;;;19.60;44.30;;;;;;5063289;28;20157;-81
2023/06/04 11:50:49;;;;;;;0.50;0.50;;;19.60;44.30;;;;;;5096627;28;20242;-82
2023/06/04 11:53:15;;;;;;;0.55;0.52;;;19.60;44.20;;;;;;5080081;28;20352;-81
2023/06/04 11:55:41;;;;;;;0.57;0.57;;;19.60;44.20;;;;;;5098146;28;20252;-81
2023/06/04 11:58:06;;;;;;;0.73;0.60;;;19.60;44.20;;;;;;5063735;28;20192;-82
2023/06/04 12:00:32;;;;;;;0.77;0.52;;;19.60;44.20;;;;;;5062972;28;20156;-82
2023/06/04 12:02:58;;;;;;;0.63;0.50;;;19.60;44.10;;;;;;5079661;28;20579;-82
2023/06/04 12:05:29;;;;;;;0.63;0.63;;;19.60;44.10;;;;;;5079418;28;20164;-81
2023/06/04 12:08:05;;;;;;;0.60;0.60;;;19.60;44.10;;;;;;5079571;28;20153;-82
2023/06/04 12:10:37;;;;;;;0.50;0.50;;;19.60;44.10;;;;;;5098120;28;20160;-82
2023/06/04 12:13:02;;;;;;;0.40;0.40;;;19.60;44.10;;;;;;5079479;28;20195;-81
2023/06/04 12:15:28;;;;;;;0.75;0.68;;;19.60;44.00;;;;;;5079817;28;20164;-81
2023/06/04 12:17:54;;;;;;;0.68;0.50;;;19.60;44.00;;;;;;5079650;28;20520;-81
2023/06/04 12:20:35;;;;;;;0.50;0.50;;;19.70;44.00;;;;;;5097700;28;20572;-82
2023/06/04 12:23:02;;;;;;;0.45;0.40;;;19.70;43.90;;;;;;5097526;28;20160;-82
2023/06/04 12:25:28;;;;;;;0.60;0.60;;;19.70;43.90;;;;;;5079711;28;20149;-81
2023/06/04 12:27:54;;;;;;;0.40;0.40;;;19.70;43.90;;;;;;5104686;28;20160;-79
2023/06/04 12:30:20;;;;;;;0.45;0.45;;;19.70;43.90;;;;;;5056754;28;20160;-80
2023/06/04 12:32:45;;;;;;;0.40;0.38;;;19.70;43.80;;;;;;5056611;28;20199;-80
2023/06/04 12:35:11;;;;;;;0.40;0.40;;;19.70;43.90;;;;;;5108316;28;20157;-79
2023/06/04 12:37:39;;;;;;;0.50;0.40;;;19.70;43.90;;;;;;5090827;28;20232;-81
2023/06/04 12:40:06;;;;;;;0.60;0.40;;;19.70;43.80;;;;;;5074295;28;20157;-79
2023/06/04 12:42:36;;;;;;;0.47;0.43;;;19.70;43.90;;;;;;5106473;28;20624;-79
2023/06/04 12:45:02;;;;;;;0.50;0.50;;;19.70;43.90;;;;;;5087526;28;20184;-82
2023/06/04 12:47:28;;;;;;;0.95;0.70;;;19.70;43.90;;;;;;5085948;28;20161;-79